Terminal Aerodrome Forecast
Issued by NWS

Home | Current Version | Previous Version | Text Only | Print | Product List | Glossary On
Versions: 1 2 3 4 5 6 7 8 9 10 11 12 13 14 15 16 17 18 19 20
000
FTUS46 KMTR 230500
TAFOAK
TAF
KOAK 230530Z 2306/2412 27011KT P6SM SCT012
      TEMPO 2306/2310 BKN012
     FM231900 28016KT P6SM FEW016
     FM240300 26006KT P6SM FEW012=

USA.gov is the U.S. government's official web portal to all federal, state and local government web resources and services.